KARG Airport (Walnut Ridge Rgnl) Information

FAA: ARG - ICAO: KARG

KARG Airport Location

State Arkansas
County Lawrence
City Walnut Ridge
KARG Airport is 4 miles northeast of Walnut Ridge, AR.
Latitude 36-07-28.8000N
Longitude 090-55-30.4000W
Elevation 279ft

KARG Airport METARs

METAR KARG 071956Z AUTO 06005KT 3SM BR OVC011 14/12 A3022 RMK AO2 SLP236 T01390122
Altimeter 30.22"
Temperature 13.9°C (57.0°F)
Wind 60° at 5KT
Clouds overcast at 1,100ft
Visibility 3.0mi
Time observed: 2022-12-07T19:56:00Z

KARG Airport Details

Status Operational
Activation October 1943
Ownership Public
Usage Public
Chart MEMPHIS
ATC on-site No
Beacon schedule sunset-sunrise
Beacon color clear green

KARG Airport Contacts

Owner CITY OF WALNUT RIDGE
Owner address 300 WEST MAIN STREET, WALNUT RIDGE, AR 72476
Owner phone 870-886-6638
Manager STUART MAY
Manager address 1000 N WASHINGTON ST # 1, 306 DAVIS DR, WEATHERFORD , OK 73096
Manager phone (918) 978-8121

KARG Airport (Walnut Ridge Rgnl) Radio Frequencies

KARG (Airport) Radio Frequencies

UNICOM 122.8
Common traffic advisory frequency (CTAF) 122.8